sensor_id;sensor_type;location;lat;lon;timestamp;P1;durP1;ratioP1;P2;durP2;ratioP2
72864;SDS011;61000;48.120;11.548;2023-07-22T00:02:20;4.65;;;4.13;;
72864;SDS011;61000;48.120;11.548;2023-07-22T00:04:47;4.43;;;3.55;;
72864;SDS011;61000;48.120;11.548;2023-07-22T00:07:14;4.57;;;3.88;;
72864;SDS011;61000;48.120;11.548;2023-07-22T00:09:42;6.95;;;3.95;;
72864;SDS011;61000;48.120;11.548;2023-07-22T00:12:09;6.15;;;4.10;;
72864;SDS011;61000;48.120;11.548;2023-07-22T00:14:39;4.55;;;3.90;;
72864;SDS011;61000;48.120;11.548;2023-07-22T00:17:06;6.32;;;4.18;;
72864;SDS011;61000;48.120;11.548;2023-07-22T00:19:33;6.25;;;4.00;;
72864;SDS011;61000;48.120;11.548;2023-07-22T00:22:00;5.15;;;3.92;;
72864;SDS011;61000;48.120;11.548;2023-07-22T00:24:27;5.88;;;4.13;;
72864;SDS011;61000;48.120;11.548;2023-07-22T00:26:54;5.82;;;4.47;;
72864;SDS011;61000;48.120;11.548;2023-07-22T00:29:21;4.95;;;3.60;;
72864;SDS011;61000;48.120;11.548;2023-07-22T00:31:49;6.57;;;3.83;;
72864;SDS011;61000;48.120;11.548;2023-07-22T00:34:16;5.38;;;4.50;;
72864;SDS011;61000;48.120;11.548;2023-07-22T00:36:43;4.82;;;3.70;;
72864;SDS011;61000;48.120;11.548;2023-07-22T00:39:11;5.97;;;3.90;;
72864;SDS011;61000;48.120;11.548;2023-07-22T00:41:39;8.77;;;4.57;;
72864;SDS011;61000;48.120;11.548;2023-07-22T00:44:07;4.38;;;3.55;;
72864;SDS011;61000;48.120;11.548;2023-07-22T00:46:34;3.65;;;3.35;;
72864;SDS011;61000;48.120;11.548;2023-07-22T00:49:02;4.30;;;3.55;;
72864;SDS011;61000;48.120;11.548;2023-07-22T00:51:31;5.55;;;3.45;;
72864;SDS011;61000;48.120;11.548;2023-07-22T00:53:58;5.15;;;3.25;;
72864;SDS011;61000;48.120;11.548;2023-07-22T00:56:25;4.57;;;3.45;;
72864;SDS011;61000;48.120;11.548;2023-07-22T00:58:52;4.88;;;3.70;;
72864;SDS011;61000;48.120;11.548;2023-07-22T01:01:19;8.00;;;3.30;;
72864;SDS011;61000;48.120;11.548;2023-07-22T01:03:46;7.70;;;4.20;;
72864;SDS011;61000;48.120;11.548;2023-07-22T01:06:14;9.45;;;4.43;;
72864;SDS011;61000;48.120;11.548;2023-07-22T01:08:43;4.78;;;3.83;;
72864;SDS011;61000;48.120;11.548;2023-07-22T01:11:10;7.13;;;4.97;;
72864;SDS011;61000;48.120;11.548;2023-07-22T01:13:37;5.10;;;3.97;;
72864;SDS011;61000;48.120;11.548;2023-07-22T01:16:05;4.45;;;3.83;;
72864;SDS011;61000;48.120;11.548;2023-07-22T01:18:32;5.43;;;4.70;;
72864;SDS011;61000;48.120;11.548;2023-07-22T01:20:59;6.03;;;4.05;;
72864;SDS011;61000;48.120;11.548;2023-07-22T01:23:27;5.63;;;4.00;;
72864;SDS011;61000;48.120;11.548;2023-07-22T01:25:54;4.85;;;4.25;;
72864;SDS011;61000;48.120;11.548;2023-07-22T01:28:22;5.57;;;4.00;;
72864;SDS011;61000;48.120;11.548;2023-07-22T01:30:49;9.27;;;4.70;;
72864;SDS011;61000;48.120;11.548;2023-07-22T01:33:16;6.00;;;4.40;;
72864;SDS011;61000;48.120;11.548;2023-07-22T01:35:43;7.45;;;5.00;;
72864;SDS011;61000;48.120;11.548;2023-07-22T01:38:10;7.53;;;4.63;;
72864;SDS011;61000;48.120;11.548;2023-07-22T01:40:38;6.07;;;4.93;;
72864;SDS011;61000;48.120;11.548;2023-07-22T01:43:05;5.30;;;4.28;;
72864;SDS011;61000;48.120;11.548;2023-07-22T01:45:31;7.05;;;4.40;;
72864;SDS011;61000;48.120;11.548;2023-07-22T01:47:58;7.75;;;5.20;;
72864;SDS011;61000;48.120;11.548;2023-07-22T01:50:25;5.60;;;4.78;;
72864;SDS011;61000;48.120;11.548;2023-07-22T01:52:52;5.85;;;4.65;;
72864;SDS011;61000;48.120;11.548;2023-07-22T01:55:20;6.57;;;4.80;;
72864;SDS011;61000;48.120;11.548;2023-07-22T01:57:48;7.10;;;4.95;;
72864;SDS011;61000;48.120;11.548;2023-07-22T02:00:16;4.78;;;4.35;;
72864;SDS011;61000;48.120;11.548;2023-07-22T02:02:43;8.02;;;5.13;;
72864;SDS011;61000;48.120;11.548;2023-07-22T02:05:10;5.03;;;4.53;;
72864;SDS011;61000;48.120;11.548;2023-07-22T02:07:37;5.30;;;4.70;;
72864;SDS011;61000;48.120;11.548;2023-07-22T02:10:04;8.55;;;5.13;;
72864;SDS011;61000;48.120;11.548;2023-07-22T02:12:32;5.82;;;4.50;;
72864;SDS011;61000;48.120;11.548;2023-07-22T02:15:00;6.25;;;4.32;;
72864;SDS011;61000;48.120;11.548;2023-07-22T02:17:27;9.43;;;4.95;;
72864;SDS011;61000;48.120;11.548;2023-07-22T02:19:56;5.43;;;4.93;;
72864;SDS011;61000;48.120;11.548;2023-07-22T02:22:23;5.60;;;4.90;;
72864;SDS011;61000;48.120;11.548;2023-07-22T02:24:50;6.53;;;5.57;;
72864;SDS011;61000;48.120;11.548;2023-07-22T02:27:17;7.00;;;5.22;;
72864;SDS011;61000;48.120;11.548;2023-07-22T02:29:44;5.25;;;4.57;;
72864;SDS011;61000;48.120;11.548;2023-07-22T02:32:12;7.32;;;4.93;;
72864;SDS011;61000;48.120;11.548;2023-07-22T02:34:39;4.97;;;4.47;;
72864;SDS011;61000;48.120;11.548;2023-07-22T02:37:06;7.88;;;4.78;;
72864;SDS011;61000;48.120;11.548;2023-07-22T02:39:32;6.07;;;5.10;;
72864;SDS011;61000;48.120;11.548;2023-07-22T02:42:00;4.47;;;4.07;;
72864;SDS011;61000;48.120;11.548;2023-07-22T02:44:27;5.45;;;4.80;;
72864;SDS011;61000;48.120;11.548;2023-07-22T02:46:54;5.97;;;5.38;;
72864;SDS011;61000;48.120;11.548;2023-07-22T02:49:22;6.60;;;4.38;;
72864;SDS011;61000;48.120;11.548;2023-07-22T02:51:49;6.65;;;4.95;;
72864;SDS011;61000;48.120;11.548;2023-07-22T02:54:16;5.60;;;4.57;;
72864;SDS011;61000;48.120;11.548;2023-07-22T02:56:42;7.93;;;5.10;;
72864;SDS011;61000;48.120;11.548;2023-07-22T02:59:09;6.40;;;4.28;;
72864;SDS011;61000;48.120;11.548;2023-07-22T03:01:36;8.52;;;6.10;;
72864;SDS011;61000;48.120;11.548;2023-07-22T03:04:04;7.13;;;4.78;;
72864;SDS011;61000;48.120;11.548;2023-07-22T03:06:33;5.43;;;4.85;;
72864;SDS011;61000;48.120;11.548;2023-07-22T03:09:00;7.25;;;5.32;;
72864;SDS011;61000;48.120;11.548;2023-07-22T03:11:29;6.07;;;4.63;;
72864;SDS011;61000;48.120;11.548;2023-07-22T03:13:56;6.97;;;5.50;;
72864;SDS011;61000;48.120;11.548;2023-07-22T03:16:24;6.50;;;5.10;;
72864;SDS011;61000;48.120;11.548;2023-07-22T03:18:51;6.97;;;5.22;;
72864;SDS011;61000;48.120;11.548;2023-07-22T03:21:18;5.95;;;4.93;;
72864;SDS011;61000;48.120;11.548;2023-07-22T03:23:46;5.75;;;5.10;;
72864;SDS011;61000;48.120;11.548;2023-07-22T03:26:13;6.18;;;4.95;;
72864;SDS011;61000;48.120;11.548;2023-07-22T03:28:40;8.25;;;6.03;;
72864;SDS011;61000;48.120;11.548;2023-07-22T03:31:07;8.05;;;4.70;;
72864;SDS011;61000;48.120;11.548;2023-07-22T03:33:34;6.55;;;4.75;;
72864;SDS011;61000;48.120;11.548;2023-07-22T03:36:01;8.95;;;5.15;;
72864;SDS011;61000;48.120;11.548;2023-07-22T03:38:28;5.70;;;4.63;;
72864;SDS011;61000;48.120;11.548;2023-07-22T03:40:58;8.90;;;5.05;;
72864;SDS011;61000;48.120;11.548;2023-07-22T03:43:25;6.00;;;4.78;;
72864;SDS011;61000;48.120;11.548;2023-07-22T03:45:52;5.65;;;4.95;;
72864;SDS011;61000;48.120;11.548;2023-07-22T03:48:19;6.07;;;4.90;;
72864;SDS011;61000;48.120;11.548;2023-07-22T03:50:45;6.15;;;4.72;;
72864;SDS011;61000;48.120;11.548;2023-07-22T03:53:12;5.55;;;4.85;;
72864;SDS011;61000;48.120;11.548;2023-07-22T03:55:39;5.65;;;4.65;;
72864;SDS011;61000;48.120;11.548;2023-07-22T03:58:07;7.75;;;4.35;;
72864;SDS011;61000;48.120;11.548;2023-07-22T04:00:34;6.10;;;5.05;;
72864;SDS011;61000;48.120;11.548;2023-07-22T04:03:01;7.10;;;5.20;;
72864;SDS011;61000;48.120;11.548;2023-07-22T04:05:28;6.05;;;5.28;;
72864;SDS011;61000;48.120;11.548;2023-07-22T04:07:55;5.22;;;4.72;;
72864;SDS011;61000;48.120;11.548;2023-07-22T04:10:22;6.00;;;4.68;;
72864;SDS011;61000;48.120;11.548;2023-07-22T04:12:49;5.15;;;4.43;;
72864;SDS011;61000;48.120;11.548;2023-07-22T04:15:17;5.90;;;5.00;;
72864;SDS011;61000;48.120;11.548;2023-07-22T04:17:44;5.28;;;4.63;;
72864;SDS011;61000;48.120;11.548;2023-07-22T04:20:12;9.70;;;5.72;;
72864;SDS011;61000;48.120;11.548;2023-07-22T04:22:39;6.20;;;5.07;;
72864;SDS011;61000;48.120;11.548;2023-07-22T04:25:06;5.03;;;4.53;;
72864;SDS011;61000;48.120;11.548;2023-07-22T04:27:34;6.72;;;5.07;;
72864;SDS011;61000;48.120;11.548;2023-07-22T04:30:01;5.55;;;4.90;;
72864;SDS011;61000;48.120;11.548;2023-07-22T04:32:29;6.38;;;5.00;;
72864;SDS011;61000;48.120;11.548;2023-07-22T04:34:56;5.07;;;4.50;;
72864;SDS011;61000;48.120;11.548;2023-07-22T04:37:24;5.50;;;4.50;;
72864;SDS011;61000;48.120;11.548;2023-07-22T04:39:52;4.75;;;4.15;;
72864;SDS011;61000;48.120;11.548;2023-07-22T04:42:19;7.22;;;5.00;;
72864;SDS011;61000;48.120;11.548;2023-07-22T04:44:46;5.22;;;4.40;;
72864;SDS011;61000;48.120;11.548;2023-07-22T04:47:13;4.95;;;4.45;;
72864;SDS011;61000;48.120;11.548;2023-07-22T04:49:42;7.43;;;4.60;;
72864;SDS011;61000;48.120;11.548;2023-07-22T04:52:09;6.47;;;4.70;;
72864;SDS011;61000;48.120;11.548;2023-07-22T04:54:36;5.85;;;4.60;;
72864;SDS011;61000;48.120;11.548;2023-07-22T04:57:03;4.57;;;4.10;;
72864;SDS011;61000;48.120;11.548;2023-07-22T04:59:30;5.30;;;4.35;;
72864;SDS011;61000;48.120;11.548;2023-07-22T05:01:57;5.38;;;4.30;;
72864;SDS011;61000;48.120;11.548;2023-07-22T05:04:24;4.25;;;3.85;;
72864;SDS011;61000;48.120;11.548;2023-07-22T05:06:52;6.70;;;4.55;;
72864;SDS011;61000;48.120;11.548;2023-07-22T05:09:20;5.45;;;4.40;;
72864;SDS011;61000;48.120;11.548;2023-07-22T05:11:47;5.90;;;3.90;;
72864;SDS011;61000;48.120;11.548;2023-07-22T05:14:13;6.35;;;4.35;;
72864;SDS011;61000;48.120;11.548;2023-07-22T05:16:40;6.97;;;4.25;;
72864;SDS011;61000;48.120;11.548;2023-07-22T05:19:07;8.13;;;4.68;;
72864;SDS011;61000;48.120;11.548;2023-07-22T05:21:34;5.28;;;4.18;;
72864;SDS011;61000;48.120;11.548;2023-07-22T05:24:02;5.57;;;3.60;;
72864;SDS011;61000;48.120;11.548;2023-07-22T05:26:29;4.90;;;3.35;;
72864;SDS011;61000;48.120;11.548;2023-07-22T05:28:57;5.80;;;3.63;;
72864;SDS011;61000;48.120;11.548;2023-07-22T05:31:24;5.00;;;3.67;;
72864;SDS011;61000;48.120;11.548;2023-07-22T05:33:50;5.82;;;3.90;;
72864;SDS011;61000;48.120;11.548;2023-07-22T05:36:17;3.90;;;2.95;;
72864;SDS011;61000;48.120;11.548;2023-07-22T05:38:44;4.95;;;3.13;;
72864;SDS011;61000;48.120;11.548;2023-07-22T05:41:12;3.90;;;3.10;;
72864;SDS011;61000;48.120;11.548;2023-07-22T05:43:39;4.95;;;3.17;;
72864;SDS011;61000;48.120;11.548;2023-07-22T05:46:06;4.53;;;3.40;;
72864;SDS011;61000;48.120;11.548;2023-07-22T05:48:33;5.25;;;3.50;;
72864;SDS011;61000;48.120;11.548;2023-07-22T05:51:00;3.63;;;2.97;;
72864;SDS011;61000;48.120;11.548;2023-07-22T05:53:27;4.95;;;3.60;;
72864;SDS011;61000;48.120;11.548;2023-07-22T05:55:54;3.03;;;2.72;;
72864;SDS011;61000;48.120;11.548;2023-07-22T05:58:22;4.78;;;3.17;;
72864;SDS011;61000;48.120;11.548;2023-07-22T06:00:49;4.93;;;3.00;;
72864;SDS011;61000;48.120;11.548;2023-07-22T06:03:17;5.65;;;3.53;;
72864;SDS011;61000;48.120;11.548;2023-07-22T06:05:44;3.15;;;2.42;;
72864;SDS011;61000;48.120;11.548;2023-07-22T06:08:11;5.00;;;2.58;;
72864;SDS011;61000;48.120;11.548;2023-07-22T06:10:39;3.05;;;2.75;;
72864;SDS011;61000;48.120;11.548;2023-07-22T06:13:06;2.75;;;2.50;;
72864;SDS011;61000;48.120;11.548;2023-07-22T06:15:35;3.13;;;2.78;;
72864;SDS011;61000;48.120;11.548;2023-07-22T06:18:02;4.90;;;3.03;;
72864;SDS011;61000;48.120;11.548;2023-07-22T06:20:33;4.50;;;3.00;;
72864;SDS011;61000;48.120;11.548;2023-07-22T06:23:01;3.28;;;2.67;;
72864;SDS011;61000;48.120;11.548;2023-07-22T06:25:28;3.00;;;2.50;;
72864;SDS011;61000;48.120;11.548;2023-07-22T06:27:55;4.22;;;2.58;;
72864;SDS011;61000;48.120;11.548;2023-07-22T06:30:22;4.28;;;2.92;;
72864;SDS011;61000;48.120;11.548;2023-07-22T06:32:50;2.55;;;2.25;;
72864;SDS011;61000;48.120;11.548;2023-07-22T06:35:17;3.60;;;2.60;;
72864;SDS011;61000;48.120;11.548;2023-07-22T06:37:44;3.65;;;2.42;;
72864;SDS011;61000;48.120;11.548;2023-07-22T06:40:11;7.60;;;2.92;;
72864;SDS011;61000;48.120;11.548;2023-07-22T06:42:40;2.95;;;2.40;;
72864;SDS011;61000;48.120;11.548;2023-07-22T06:45:07;2.60;;;1.95;;
72864;SDS011;61000;48.120;11.548;2023-07-22T06:47:34;3.17;;;2.10;;
72864;SDS011;61000;48.120;11.548;2023-07-22T06:50:03;2.25;;;2.03;;
72864;SDS011;61000;48.120;11.548;2023-07-22T06:52:30;2.90;;;2.58;;
72864;SDS011;61000;48.120;11.548;2023-07-22T06:54:57;2.60;;;2.30;;
72864;SDS011;61000;48.120;11.548;2023-07-22T06:57:24;5.30;;;2.47;;
72864;SDS011;61000;48.120;11.548;2023-07-22T06:59:52;2.38;;;2.17;;
72864;SDS011;61000;48.120;11.548;2023-07-22T07:02:20;3.35;;;2.67;;
72864;SDS011;61000;48.120;11.548;2023-07-22T07:04:47;2.20;;;1.95;;
72864;SDS011;61000;48.120;11.548;2023-07-22T07:07:15;3.42;;;2.50;;
72864;SDS011;61000;48.120;11.548;2023-07-22T07:09:42;5.93;;;2.70;;
72864;SDS011;61000;48.120;11.548;2023-07-22T07:12:10;2.92;;;2.00;;
72864;SDS011;61000;48.120;11.548;2023-07-22T07:14:37;3.05;;;2.00;;
72864;SDS011;61000;48.120;11.548;2023-07-22T07:17:03;3.47;;;2.50;;
72864;SDS011;61000;48.120;11.548;2023-07-22T07:19:31;2.80;;;2.03;;
72864;SDS011;61000;48.120;11.548;2023-07-22T07:21:57;3.80;;;2.28;;
72864;SDS011;61000;48.120;11.548;2023-07-22T07:24:26;2.58;;;2.22;;
72864;SDS011;61000;48.120;11.548;2023-07-22T07:26:53;2.40;;;2.17;;
72864;SDS011;61000;48.120;11.548;2023-07-22T07:29:20;3.15;;;2.13;;
72864;SDS011;61000;48.120;11.548;2023-07-22T07:31:47;2.20;;;2.00;;
72864;SDS011;61000;48.120;11.548;2023-07-22T07:34:13;2.10;;;1.75;;
72864;SDS011;61000;48.120;11.548;2023-07-22T07:36:40;2.67;;;2.38;;
72864;SDS011;61000;48.120;11.548;2023-07-22T07:39:07;2.08;;;1.85;;
72864;SDS011;61000;48.120;11.548;2023-07-22T07:41:35;4.22;;;2.17;;
72864;SDS011;61000;48.120;11.548;2023-07-22T07:44:03;2.42;;;2.20;;
72864;SDS011;61000;48.120;11.548;2023-07-22T07:46:30;3.28;;;2.13;;
72864;SDS011;61000;48.120;11.548;2023-07-22T07:48:57;1.95;;;1.80;;
72864;SDS011;61000;48.120;11.548;2023-07-22T07:51:27;3.03;;;2.35;;
72864;SDS011;61000;48.120;11.548;2023-07-22T07:53:55;5.03;;;2.28;;
72864;SDS011;61000;48.120;11.548;2023-07-22T07:56:23;2.30;;;2.05;;
72864;SDS011;61000;48.120;11.548;2023-07-22T07:58:52;2.15;;;1.75;;
72864;SDS011;61000;48.120;11.548;2023-07-22T08:01:20;3.72;;;1.90;;
72864;SDS011;61000;48.120;11.548;2023-07-22T08:03:47;3.88;;;2.33;;
72864;SDS011;61000;48.120;11.548;2023-07-22T08:06:16;2.88;;;1.88;;
72864;SDS011;61000;48.120;11.548;2023-07-22T08:08:43;2.92;;;2.00;;
72864;SDS011;61000;48.120;11.548;2023-07-22T08:11:12;1.88;;;1.60;;
72864;SDS011;61000;48.120;11.548;2023-07-22T08:13:41;3.08;;;2.15;;
72864;SDS011;61000;48.120;11.548;2023-07-22T08:16:11;2.47;;;1.95;;
72864;SDS011;61000;48.120;11.548;2023-07-22T08:18:40;4.53;;;2.42;;
72864;SDS011;61000;48.120;11.548;2023-07-22T08:21:07;3.22;;;1.75;;
72864;SDS011;61000;48.120;11.548;2023-07-22T08:23:34;2.33;;;1.88;;
72864;SDS011;61000;48.120;11.548;2023-07-22T08:26:01;3.10;;;1.88;;
72864;SDS011;61000;48.120;11.548;2023-07-22T08:28:30;3.70;;;2.00;;
72864;SDS011;61000;48.120;11.548;2023-07-22T08:30:57;3.92;;;1.90;;
72864;SDS011;61000;48.120;11.548;2023-07-22T08:33:27;2.70;;;2.13;;
72864;SDS011;61000;48.120;11.548;2023-07-22T08:35:53;2.00;;;1.65;;
72864;SDS011;61000;48.120;11.548;2023-07-22T08:38:24;2.13;;;1.50;;
72864;SDS011;61000;48.120;11.548;2023-07-22T08:40:50;2.50;;;1.92;;
72864;SDS011;61000;48.120;11.548;2023-07-22T08:43:19;2.78;;;1.95;;
72864;SDS011;61000;48.120;11.548;2023-07-22T08:45:47;4.43;;;1.52;;
72864;SDS011;61000;48.120;11.548;2023-07-22T08:48:15;2.55;;;2.30;;
72864;SDS011;61000;48.120;11.548;2023-07-22T08:50:45;2.38;;;1.83;;
72864;SDS011;61000;48.120;11.548;2023-07-22T08:53:16;2.00;;;1.60;;
72864;SDS011;61000;48.120;11.548;2023-07-22T08:55:45;2.03;;;1.80;;
72864;SDS011;61000;48.120;11.548;2023-07-22T08:58:13;3.95;;;1.75;;
72864;SDS011;61000;48.120;11.548;2023-07-22T09:00:40;2.40;;;1.50;;
72864;SDS011;61000;48.120;11.548;2023-07-22T09:03:07;1.80;;;1.50;;
72864;SDS011;61000;48.120;11.548;2023-07-22T09:05:36;2.03;;;1.77;;
72864;SDS011;61000;48.120;11.548;2023-07-22T09:08:06;2.40;;;1.80;;
72864;SDS011;61000;48.120;11.548;2023-07-22T09:10:34;1.88;;;1.52;;
72864;SDS011;61000;48.120;11.548;2023-07-22T09:13:01;2.88;;;2.00;;
72864;SDS011;61000;48.120;11.548;2023-07-22T09:15:29;1.77;;;1.55;;
72864;SDS011;61000;48.120;11.548;2023-07-22T09:17:58;3.15;;;1.70;;
72864;SDS011;61000;48.120;11.548;2023-07-22T09:20:25;2.70;;;1.48;;
72864;SDS011;61000;48.120;11.548;2023-07-22T09:22:53;1.58;;;1.48;;
72864;SDS011;61000;48.120;11.548;2023-07-22T09:25:22;2.35;;;1.10;;
72864;SDS011;61000;48.120;11.548;2023-07-22T09:27:51;1.60;;;1.50;;
72864;SDS011;61000;48.120;11.548;2023-07-22T09:30:22;1.58;;;1.27;;
72864;SDS011;61000;48.120;11.548;2023-07-22T09:32:51;1.77;;;1.30;;
72864;SDS011;61000;48.120;11.548;2023-07-22T09:35:19;1.40;;;1.30;;
72864;SDS011;61000;48.120;11.548;2023-07-22T09:37:48;1.70;;;1.13;;
72864;SDS011;61000;48.120;11.548;2023-07-22T09:40:16;1.33;;;1.17;;
72864;SDS011;61000;48.120;11.548;2023-07-22T09:42:46;1.42;;;1.30;;
72864;SDS011;61000;48.120;11.548;2023-07-22T09:45:14;1.65;;;1.55;;
72864;SDS011;61000;48.120;11.548;2023-07-22T09:47:42;1.15;;;1.05;;
72864;SDS011;61000;48.120;11.548;2023-07-22T09:50:10;3.45;;;1.27;;
72864;SDS011;61000;48.120;11.548;2023-07-22T09:52:42;2.33;;;1.17;;
72864;SDS011;61000;48.120;11.548;2023-07-22T09:55:14;1.40;;;1.17;;
72864;SDS011;61000;48.120;11.548;2023-07-22T09:57:43;1.15;;;1.02;;
72864;SDS011;61000;48.120;11.548;2023-07-22T10:00:14;3.22;;;1.15;;
72864;SDS011;61000;48.120;11.548;2023-07-22T10:02:42;1.58;;;1.33;;
72864;SDS011;61000;48.120;11.548;2023-07-22T10:05:17;2.28;;;1.40;;
72864;SDS011;61000;48.120;11.548;2023-07-22T10:07:46;4.47;;;1.35;;
72864;SDS011;61000;48.120;11.548;2023-07-22T10:10:17;1.50;;;1.40;;
72864;SDS011;61000;48.120;11.548;2023-07-22T10:12:45;2.33;;;1.20;;
72864;SDS011;61000;48.120;11.548;2023-07-22T10:15:16;1.67;;;1.30;;
72864;SDS011;61000;48.120;11.548;2023-07-22T10:17:44;3.08;;;1.13;;
72864;SDS011;61000;48.120;11.548;2023-07-22T10:20:12;1.30;;;1.20;;
72864;SDS011;61000;48.120;11.548;2023-07-22T10:22:41;1.10;;;1.05;;
72864;SDS011;61000;48.120;11.548;2023-07-22T10:25:10;4.78;;;1.40;;
72864;SDS011;61000;48.120;11.548;2023-07-22T10:27:38;1.80;;;1.10;;
72864;SDS011;61000;48.120;11.548;2023-07-22T10:30:07;1.73;;;1.20;;
72864;SDS011;61000;48.120;11.548;2023-07-22T10:32:36;2.72;;;1.13;;
72864;SDS011;61000;48.120;11.548;2023-07-22T10:35:07;1.40;;;1.30;;
72864;SDS011;61000;48.120;11.548;2023-07-22T10:37:36;3.10;;;1.40;;
72864;SDS011;61000;48.120;11.548;2023-07-22T10:40:16;1.98;;;1.60;;
72864;SDS011;61000;48.120;11.548;2023-07-22T10:42:51;1.80;;;1.30;;
72864;SDS011;61000;48.120;11.548;2023-07-22T10:45:27;2.85;;;1.20;;
72864;SDS011;61000;48.120;11.548;2023-07-22T10:48:03;2.42;;;1.38;;
72864;SDS011;61000;48.120;11.548;2023-07-22T10:50:42;3.72;;;1.63;;
72864;SDS011;61000;48.120;11.548;2023-07-22T10:53:12;2.05;;;1.30;;
72864;SDS011;61000;48.120;11.548;2023-07-22T10:58:54;2.88;;;1.25;;
72864;SDS011;61000;48.120;11.548;2023-07-22T11:01:23;4.72;;;1.40;;
72864;SDS011;61000;48.120;11.548;2023-07-22T11:04:21;3.92;;;1.60;;
72864;SDS011;61000;48.120;11.548;2023-07-22T11:06:56;1.48;;;1.33;;
72864;SDS011;61000;48.120;11.548;2023-07-22T11:09:34;2.97;;;1.38;;
72864;SDS011;61000;48.120;11.548;2023-07-22T11:12:02;2.33;;;1.65;;
72864;SDS011;61000;48.120;11.548;2023-07-22T11:14:31;2.05;;;1.52;;
72864;SDS011;61000;48.120;11.548;2023-07-22T11:17:01;4.28;;;1.42;;
72864;SDS011;61000;48.120;11.548;2023-07-22T11:19:30;1.50;;;1.40;;
72864;SDS011;61000;48.120;11.548;2023-07-22T11:21:58;2.25;;;1.50;;
72864;SDS011;61000;48.120;11.548;2023-07-22T11:24:26;2.08;;;1.50;;
72864;SDS011;61000;48.120;11.548;2023-07-22T11:26:53;1.88;;;1.48;;
72864;SDS011;61000;48.120;11.548;2023-07-22T11:29:21;2.08;;;1.80;;
72864;SDS011;61000;48.120;11.548;2023-07-22T11:31:49;1.60;;;1.35;;
72864;SDS011;61000;48.120;11.548;2023-07-22T11:34:18;1.50;;;1.33;;
72864;SDS011;61000;48.120;11.548;2023-07-22T11:36:51;2.35;;;1.63;;
72864;SDS011;61000;48.120;11.548;2023-07-22T11:39:20;2.58;;;1.40;;
72864;SDS011;61000;48.120;11.548;2023-07-22T11:41:48;2.15;;;1.73;;
72864;SDS011;61000;48.120;11.548;2023-07-22T11:44:16;2.95;;;1.50;;
72864;SDS011;61000;48.120;11.548;2023-07-22T11:46:52;4.82;;;1.50;;
72864;SDS011;61000;48.120;11.548;2023-07-22T11:49:23;3.72;;;1.80;;
72864;SDS011;61000;48.120;11.548;2023-07-22T11:51:53;1.67;;;1.40;;
72864;SDS011;61000;48.120;11.548;2023-07-22T11:54:21;1.80;;;1.48;;
72864;SDS011;61000;48.120;11.548;2023-07-22T11:56:48;2.08;;;1.70;;
72864;SDS011;61000;48.120;11.548;2023-07-22T11:59:15;2.22;;;1.50;;
72864;SDS011;61000;48.120;11.548;2023-07-22T12:01:43;1.40;;;1.30;;
72864;SDS011;61000;48.120;11.548;2023-07-22T12:04:11;3.42;;;1.25;;
72864;SDS011;61000;48.120;11.548;2023-07-22T12:06:40;2.15;;;1.75;;
72864;SDS011;61000;48.120;11.548;2023-07-22T12:09:08;3.72;;;1.30;;
72864;SDS011;61000;48.120;11.548;2023-07-22T12:11:36;2.67;;;1.80;;
72864;SDS011;61000;48.120;11.548;2023-07-22T12:14:10;2.72;;;1.70;;
72864;SDS011;61000;48.120;11.548;2023-07-22T12:16:38;3.10;;;1.60;;
72864;SDS011;61000;48.120;11.548;2023-07-22T12:19:06;1.77;;;1.52;;
72864;SDS011;61000;48.120;11.548;2023-07-22T12:21:34;2.72;;;1.45;;
72864;SDS011;61000;48.120;11.548;2023-07-22T12:24:03;5.78;;;1.25;;
72864;SDS011;61000;48.120;11.548;2023-07-22T12:26:30;2.85;;;1.48;;
72864;SDS011;61000;48.120;11.548;2023-07-22T12:28:57;1.58;;;1.48;;
72864;SDS011;61000;48.120;11.548;2023-07-22T12:31:24;2.55;;;1.35;;
72864;SDS011;61000;48.120;11.548;2023-07-22T12:33:51;1.83;;;1.60;;
72864;SDS011;61000;48.120;11.548;2023-07-22T12:36:18;2.28;;;2.00;;
72864;SDS011;61000;48.120;11.548;2023-07-22T12:38:45;1.55;;;1.40;;
72864;SDS011;61000;48.120;11.548;2023-07-22T12:41:13;3.83;;;1.52;;
72864;SDS011;61000;48.120;11.548;2023-07-22T12:43:40;1.85;;;1.60;;
72864;SDS011;61000;48.120;11.548;2023-07-22T12:46:07;2.92;;;1.90;;
72864;SDS011;61000;48.120;11.548;2023-07-22T12:48:34;1.65;;;1.40;;
72864;SDS011;61000;48.120;11.548;2023-07-22T12:51:01;2.17;;;1.60;;
72864;SDS011;61000;48.120;11.548;2023-07-22T12:53:28;2.03;;;1.65;;
72864;SDS011;61000;48.120;11.548;2023-07-22T12:55:55;1.45;;;1.23;;
72864;SDS011;61000;48.120;11.548;2023-07-22T12:58:26;1.50;;;1.35;;
72864;SDS011;61000;48.120;11.548;2023-07-22T13:00:53;2.80;;;1.42;;
72864;SDS011;61000;48.120;11.548;2023-07-22T13:03:21;2.78;;;1.48;;
72864;SDS011;61000;48.120;11.548;2023-07-22T13:05:48;1.63;;;1.52;;
72864;SDS011;61000;48.120;11.548;2023-07-22T13:08:15;2.00;;;1.67;;
72864;SDS011;61000;48.120;11.548;2023-07-22T13:10:43;4.00;;;1.60;;
72864;SDS011;61000;48.120;11.548;2023-07-22T13:13:12;1.67;;;1.50;;
72864;SDS011;61000;48.120;11.548;2023-07-22T13:15:41;1.60;;;1.50;;
72864;SDS011;61000;48.120;11.548;2023-07-22T13:18:08;2.63;;;1.73;;
72864;SDS011;61000;48.120;11.548;2023-07-22T13:20:38;1.70;;;1.58;;
72864;SDS011;61000;48.120;11.548;2023-07-22T13:23:05;3.22;;;1.60;;
72864;SDS011;61000;48.120;11.548;2023-07-22T13:25:33;2.33;;;1.50;;
72864;SDS011;61000;48.120;11.548;2023-07-22T13:28:00;1.17;;;1.08;;
72864;SDS011;61000;48.120;11.548;2023-07-22T13:30:27;2.20;;;1.75;;
72864;SDS011;61000;48.120;11.548;2023-07-22T13:32:55;1.67;;;1.55;;
72864;SDS011;61000;48.120;11.548;2023-07-22T13:35:22;3.10;;;1.45;;
72864;SDS011;61000;48.120;11.548;2023-07-22T13:37:49;1.95;;;1.60;;
72864;SDS011;61000;48.120;11.548;2023-07-22T13:40:16;2.97;;;1.70;;
72864;SDS011;61000;48.120;11.548;2023-07-22T13:42:43;2.00;;;1.48;;
72864;SDS011;61000;48.120;11.548;2023-07-22T13:45:11;2.88;;;1.90;;
72864;SDS011;61000;48.120;11.548;2023-07-22T13:47:38;2.00;;;1.40;;
72864;SDS011;61000;48.120;11.548;2023-07-22T13:50:06;1.52;;;1.42;;
72864;SDS011;61000;48.120;11.548;2023-07-22T13:52:34;1.70;;;1.60;;
72864;SDS011;61000;48.120;11.548;2023-07-22T13:55:01;2.03;;;1.50;;
72864;SDS011;61000;48.120;11.548;2023-07-22T13:57:30;4.03;;;1.73;;
72864;SDS011;61000;48.120;11.548;2023-07-22T13:59:57;2.35;;;1.63;;
72864;SDS011;61000;48.120;11.548;2023-07-22T14:02:24;2.63;;;1.50;;
72864;SDS011;61000;48.120;11.548;2023-07-22T14:04:51;1.98;;;1.77;;
72864;SDS011;61000;48.120;11.548;2023-07-22T14:07:19;1.77;;;1.58;;
72864;SDS011;61000;48.120;11.548;2023-07-22T14:09:46;2.90;;;1.63;;
72864;SDS011;61000;48.120;11.548;2023-07-22T14:12:13;1.50;;;1.40;;
72864;SDS011;61000;48.120;11.548;2023-07-22T14:14:40;2.00;;;1.70;;
72864;SDS011;61000;48.120;11.548;2023-07-22T14:17:07;3.53;;;1.80;;
72864;SDS011;61000;48.120;11.548;2023-07-22T14:19:34;1.67;;;1.52;;
72864;SDS011;61000;48.120;11.548;2023-07-22T14:22:01;1.77;;;1.58;;
72864;SDS011;61000;48.120;11.548;2023-07-22T14:24:30;2.10;;;1.58;;
72864;SDS011;61000;48.120;11.548;2023-07-22T14:26:57;2.05;;;1.83;;
72864;SDS011;61000;48.120;11.548;2023-07-22T14:29:24;1.77;;;1.67;;
72864;SDS011;61000;48.120;11.548;2023-07-22T14:31:51;3.55;;;1.70;;
72864;SDS011;61000;48.120;11.548;2023-07-22T14:34:18;1.67;;;1.50;;
72864;SDS011;61000;48.120;11.548;2023-07-22T14:36:45;2.35;;;1.90;;
72864;SDS011;61000;48.120;11.548;2023-07-22T14:39:12;1.33;;;1.23;;
72864;SDS011;61000;48.120;11.548;2023-07-22T14:41:40;3.30;;;1.80;;